sensor_id;sensor_type;location;lat;lon;timestamp;temperature;humidity
16627;DHT22;8427;52.204;7.202;2023-09-08T00:01:02;18.30;78.70
16627;DHT22;8427;52.204;7.202;2023-09-08T00:03:29;18.30;78.20
16627;DHT22;8427;52.204;7.202;2023-09-08T00:05:57;18.30;77.60
16627;DHT22;8427;52.204;7.202;2023-09-08T00:08:25;18.50;77.50
16627;DHT22;8427;52.204;7.202;2023-09-08T00:10:53;18.30;77.30
16627;DHT22;8427;52.204;7.202;2023-09-08T00:13:20;18.40;77.00
16627;DHT22;8427;52.204;7.202;2023-09-08T00:15:50;18.50;77.20
16627;DHT22;8427;52.204;7.202;2023-09-08T00:18:17;18.50;78.00
16627;DHT22;8427;52.204;7.202;2023-09-08T00:20:45;18.40;78.10
16627;DHT22;8427;52.204;7.202;2023-09-08T00:23:13;18.40;78.50
16627;DHT22;8427;52.204;7.202;2023-09-08T00:25:41;18.40;78.70
16627;DHT22;8427;52.204;7.202;2023-09-08T00:28:08;18.30;78.80
16627;DHT22;8427;52.204;7.202;2023-09-08T00:30:36;18.30;79.10
16627;DHT22;8427;52.204;7.202;2023-09-08T00:33:05;18.10;79.30
16627;DHT22;8427;52.204;7.202;2023-09-08T00:35:35;18.20;79.50
16627;DHT22;8427;52.204;7.202;2023-09-08T00:38:03;18.00;79.70
16627;DHT22;8427;52.204;7.202;2023-09-08T00:40:31;18.00;80.10
16627;DHT22;8427;52.204;7.202;2023-09-08T00:42:59;18.00;80.20
16627;DHT22;8427;52.204;7.202;2023-09-08T00:45:27;17.90;80.30
16627;DHT22;8427;52.204;7.202;2023-09-08T00:47:57;17.80;80.60
16627;DHT22;8427;52.204;7.202;2023-09-08T00:50:27;17.60;80.70
16627;DHT22;8427;52.204;7.202;2023-09-08T00:52:55;17.60;80.90
16627;DHT22;8427;52.204;7.202;2023-09-08T00:55:22;17.60;81.00
16627;DHT22;8427;52.204;7.202;2023-09-08T00:57:50;17.40;81.40
16627;DHT22;8427;52.204;7.202;2023-09-08T01:00:18;17.40;81.60
16627;DHT22;8427;52.204;7.202;2023-09-08T01:02:46;17.30;81.60
16627;DHT22;8427;52.204;7.202;2023-09-08T01:05:14;17.20;81.90
16627;DHT22;8427;52.204;7.202;2023-09-08T01:07:44;17.10;82.20
16627;DHT22;8427;52.204;7.202;2023-09-08T01:10:12;17.10;82.50
16627;DHT22;8427;52.204;7.202;2023-09-08T01:12:40;17.10;82.50
16627;DHT22;8427;52.204;7.202;2023-09-08T01:15:08;17.00;82.50
16627;DHT22;8427;52.204;7.202;2023-09-08T01:17:36;17.00;82.50
16627;DHT22;8427;52.204;7.202;2023-09-08T01:20:04;17.00;82.60
16627;DHT22;8427;52.204;7.202;2023-09-08T01:22:49;17.00;82.80
16627;DHT22;8427;52.204;7.202;2023-09-08T01:25:21;16.90;83.10
16627;DHT22;8427;52.204;7.202;2023-09-08T01:27:50;16.90;83.00
16627;DHT22;8427;52.204;7.202;2023-09-08T01:30:18;16.70;83.10
16627;DHT22;8427;52.204;7.202;2023-09-08T01:32:46;16.80;83.20
16627;DHT22;8427;52.204;7.202;2023-09-08T01:35:14;16.70;83.40
16627;DHT22;8427;52.204;7.202;2023-09-08T01:37:44;16.70;83.40
16627;DHT22;8427;52.204;7.202;2023-09-08T01:40:12;16.70;83.30
16627;DHT22;8427;52.204;7.202;2023-09-08T01:42:41;16.70;83.60
16627;DHT22;8427;52.204;7.202;2023-09-08T01:45:10;16.80;83.50
16627;DHT22;8427;52.204;7.202;2023-09-08T01:47:37;16.80;83.60
16627;DHT22;8427;52.204;7.202;2023-09-08T01:50:05;16.80;84.00
16627;DHT22;8427;52.204;7.202;2023-09-08T01:52:33;16.60;83.80
16627;DHT22;8427;52.204;7.202;2023-09-08T01:55:01;16.80;83.90
16627;DHT22;8427;52.204;7.202;2023-09-08T01:57:29;16.70;83.90
16627;DHT22;8427;52.204;7.202;2023-09-08T01:59:58;16.70;84.00
16627;DHT22;8427;52.204;7.202;2023-09-08T02:02:26;16.70;84.00
16627;DHT22;8427;52.204;7.202;2023-09-08T02:04:53;16.70;84.00
16627;DHT22;8427;52.204;7.202;2023-09-08T02:07:21;16.60;84.10
16627;DHT22;8427;52.204;7.202;2023-09-08T02:09:49;16.60;84.00
16627;DHT22;8427;52.204;7.202;2023-09-08T02:12:17;16.50;84.20
16627;DHT22;8427;52.204;7.202;2023-09-08T02:14:44;16.50;84.30
16627;DHT22;8427;52.204;7.202;2023-09-08T02:17:13;16.60;84.40
16627;DHT22;8427;52.204;7.202;2023-09-08T02:19:41;16.60;84.60
16627;DHT22;8427;52.204;7.202;2023-09-08T02:22:09;16.40;84.70
16627;DHT22;8427;52.204;7.202;2023-09-08T02:24:36;16.50;84.70
16627;DHT22;8427;52.204;7.202;2023-09-08T02:27:04;16.40;84.80
16627;DHT22;8427;52.204;7.202;2023-09-08T02:29:32;16.50;84.60
16627;DHT22;8427;52.204;7.202;2023-09-08T02:31:59;16.40;84.90
16627;DHT22;8427;52.204;7.202;2023-09-08T02:34:28;16.30;85.00
16627;DHT22;8427;52.204;7.202;2023-09-08T02:36:56;16.30;85.00
16627;DHT22;8427;52.204;7.202;2023-09-08T02:39:24;16.30;85.00
16627;DHT22;8427;52.204;7.202;2023-09-08T02:44:35;16.30;84.90
16627;DHT22;8427;52.204;7.202;2023-09-08T02:47:03;16.20;84.90
16627;DHT22;8427;52.204;7.202;2023-09-08T02:49:34;16.30;85.00
16627;DHT22;8427;52.204;7.202;2023-09-08T02:52:02;16.20;84.90
16627;DHT22;8427;52.204;7.202;2023-09-08T02:54:29;16.20;85.00
16627;DHT22;8427;52.204;7.202;2023-09-08T02:56:57;16.20;85.00
16627;DHT22;8427;52.204;7.202;2023-09-08T02:59:25;16.20;85.10
16627;DHT22;8427;52.204;7.202;2023-09-08T03:01:53;16.10;85.10
16627;DHT22;8427;52.204;7.202;2023-09-08T03:04:21;16.10;85.10
16627;DHT22;8427;52.204;7.202;2023-09-08T03:06:50;16.10;85.20
16627;DHT22;8427;52.204;7.202;2023-09-08T03:09:18;16.10;85.20
16627;DHT22;8427;52.204;7.202;2023-09-08T03:11:46;16.00;85.40
16627;DHT22;8427;52.204;7.202;2023-09-08T03:14:14;16.00;85.40
16627;DHT22;8427;52.204;7.202;2023-09-08T03:16:42;15.90;85.50
16627;DHT22;8427;52.204;7.202;2023-09-08T03:19:10;15.90;85.70
16627;DHT22;8427;52.204;7.202;2023-09-08T03:21:37;15.90;85.70
16627;DHT22;8427;52.204;7.202;2023-09-08T03:24:06;15.80;86.00
16627;DHT22;8427;52.204;7.202;2023-09-08T03:26:34;15.80;86.00
16627;DHT22;8427;52.204;7.202;2023-09-08T03:29:02;15.80;86.10
16627;DHT22;8427;52.204;7.202;2023-09-08T03:31:30;15.70;86.10
16627;DHT22;8427;52.204;7.202;2023-09-08T03:33:58;15.80;86.20
16627;DHT22;8427;52.204;7.202;2023-09-08T03:36:26;15.70;86.00
16627;DHT22;8427;52.204;7.202;2023-09-08T03:38:54;15.70;86.10
16627;DHT22;8427;52.204;7.202;2023-09-08T03:41:25;15.70;86.40
16627;DHT22;8427;52.204;7.202;2023-09-08T03:43:53;15.60;86.30
16627;DHT22;8427;52.204;7.202;2023-09-08T03:46:21;15.60;86.40
16627;DHT22;8427;52.204;7.202;2023-09-08T03:48:51;15.60;86.40
16627;DHT22;8427;52.204;7.202;2023-09-08T03:51:18;15.60;86.40
16627;DHT22;8427;52.204;7.202;2023-09-08T03:53:46;15.50;86.40
16627;DHT22;8427;52.204;7.202;2023-09-08T03:56:15;15.60;86.50
16627;DHT22;8427;52.204;7.202;2023-09-08T03:58:45;15.50;86.50
16627;DHT22;8427;52.204;7.202;2023-09-08T04:01:13;15.60;86.40
16627;DHT22;8427;52.204;7.202;2023-09-08T04:03:40;15.50;86.50
16627;DHT22;8427;52.204;7.202;2023-09-08T04:06:08;15.50;86.60
16627;DHT22;8427;52.204;7.202;2023-09-08T04:08:36;15.40;86.70
16627;DHT22;8427;52.204;7.202;2023-09-08T04:11:04;15.40;86.70
16627;DHT22;8427;52.204;7.202;2023-09-08T04:13:32;15.40;86.60
16627;DHT22;8427;52.204;7.202;2023-09-08T04:16:02;15.30;86.70
16627;DHT22;8427;52.204;7.202;2023-09-08T04:18:30;15.30;86.90
16627;DHT22;8427;52.204;7.202;2023-09-08T04:20:58;15.30;87.00
16627;DHT22;8427;52.204;7.202;2023-09-08T04:23:26;15.20;87.20
16627;DHT22;8427;52.204;7.202;2023-09-08T04:25:56;15.30;87.40
16627;DHT22;8427;52.204;7.202;2023-09-08T04:28:24;15.20;87.30
16627;DHT22;8427;52.204;7.202;2023-09-08T04:30:52;15.30;87.30
16627;DHT22;8427;52.204;7.202;2023-09-08T04:33:23;15.20;87.30
16627;DHT22;8427;52.204;7.202;2023-09-08T04:35:55;15.20;87.20
16627;DHT22;8427;52.204;7.202;2023-09-08T04:38:23;15.20;87.10
16627;DHT22;8427;52.204;7.202;2023-09-08T04:40:51;15.10;87.20
16627;DHT22;8427;52.204;7.202;2023-09-08T04:43:18;15.10;87.10
16627;DHT22;8427;52.204;7.202;2023-09-08T04:45:46;15.10;87.30
16627;DHT22;8427;52.204;7.202;2023-09-08T04:48:15;15.10;87.20
16627;DHT22;8427;52.204;7.202;2023-09-08T04:50:44;15.10;87.40
16627;DHT22;8427;52.204;7.202;2023-09-08T04:53:12;15.20;87.60
16627;DHT22;8427;52.204;7.202;2023-09-08T04:55:40;15.20;87.80
16627;DHT22;8427;52.204;7.202;2023-09-08T04:58:11;15.10;87.80
16627;DHT22;8427;52.204;7.202;2023-09-08T05:00:39;15.10;87.60
16627;DHT22;8427;52.204;7.202;2023-09-08T05:03:07;15.10;87.60
16627;DHT22;8427;52.204;7.202;2023-09-08T05:05:36;15.10;87.70
16627;DHT22;8427;52.204;7.202;2023-09-08T05:08:07;15.10;87.60
16627;DHT22;8427;52.204;7.202;2023-09-08T05:10:35;15.20;87.80
16627;DHT22;8427;52.204;7.202;2023-09-08T05:13:03;15.10;87.90
16627;DHT22;8427;52.204;7.202;2023-09-08T05:15:39;15.10;88.00
16627;DHT22;8427;52.204;7.202;2023-09-08T05:18:09;15.10;88.10
16627;DHT22;8427;52.204;7.202;2023-09-08T05:20:37;15.20;88.10
16627;DHT22;8427;52.204;7.202;2023-09-08T05:23:07;15.20;88.00
16627;DHT22;8427;52.204;7.202;2023-09-08T05:25:37;15.10;88.10
16627;DHT22;8427;52.204;7.202;2023-09-08T05:28:05;15.30;87.90
16627;DHT22;8427;52.204;7.202;2023-09-08T05:30:34;15.30;87.90
16627;DHT22;8427;52.204;7.202;2023-09-08T05:33:04;15.30;88.00
16627;DHT22;8427;52.204;7.202;2023-09-08T05:35:33;15.40;88.10
16627;DHT22;8427;52.204;7.202;2023-09-08T05:38:02;15.50;88.10
16627;DHT22;8427;52.204;7.202;2023-09-08T05:40:32;15.50;88.10
16627;DHT22;8427;52.204;7.202;2023-09-08T05:42:59;15.50;88.10
16627;DHT22;8427;52.204;7.202;2023-09-08T05:45:27;15.50;87.90
16627;DHT22;8427;52.204;7.202;2023-09-08T05:47:57;15.60;88.20
16627;DHT22;8427;52.204;7.202;2023-09-08T05:50:33;15.60;88.20
16627;DHT22;8427;52.204;7.202;2023-09-08T05:53:05;15.80;88.20
16627;DHT22;8427;52.204;7.202;2023-09-08T05:55:38;15.80;88.20
16627;DHT22;8427;52.204;7.202;2023-09-08T05:58:06;15.90;88.10
16627;DHT22;8427;52.204;7.202;2023-09-08T06:00:36;16.10;88.10
16627;DHT22;8427;52.204;7.202;2023-09-08T06:03:05;16.10;87.90
16627;DHT22;8427;52.204;7.202;2023-09-08T06:05:33;16.30;88.00
16627;DHT22;8427;52.204;7.202;2023-09-08T06:08:06;16.20;87.80
16627;DHT22;8427;52.204;7.202;2023-09-08T06:10:40;16.40;87.90
16627;DHT22;8427;52.204;7.202;2023-09-08T06:13:17;16.40;87.80
16627;DHT22;8427;52.204;7.202;2023-09-08T06:15:46;16.50;87.40
16627;DHT22;8427;52.204;7.202;2023-09-08T06:18:14;16.60;87.30
16627;DHT22;8427;52.204;7.202;2023-09-08T06:20:45;16.80;86.80
16627;DHT22;8427;52.204;7.202;2023-09-08T06:23:19;16.90;86.10
16627;DHT22;8427;52.204;7.202;2023-09-08T06:25:48;17.00;86.50
16627;DHT22;8427;52.204;7.202;2023-09-08T06:28:16;17.20;85.20
16627;DHT22;8427;52.204;7.202;2023-09-08T06:30:44;17.30;85.00
16627;DHT22;8427;52.204;7.202;2023-09-08T06:33:12;17.40;85.10
16627;DHT22;8427;52.204;7.202;2023-09-08T06:35:40;17.50;84.40
16627;DHT22;8427;52.204;7.202;2023-09-08T06:38:08;17.60;84.40
16627;DHT22;8427;52.204;7.202;2023-09-08T06:40:36;17.70;84.50
16627;DHT22;8427;52.204;7.202;2023-09-08T06:43:10;17.80;84.30
16627;DHT22;8427;52.204;7.202;2023-09-08T06:45:38;17.90;84.60
16627;DHT22;8427;52.204;7.202;2023-09-08T06:48:06;18.00;83.90
16627;DHT22;8427;52.204;7.202;2023-09-08T06:50:34;18.10;83.60
16627;DHT22;8427;52.204;7.202;2023-09-08T06:53:02;18.10;82.80
16627;DHT22;8427;52.204;7.202;2023-09-08T06:55:30;18.30;82.20
16627;DHT22;8427;52.204;7.202;2023-09-08T06:58:12;18.40;82.10
16627;DHT22;8427;52.204;7.202;2023-09-08T07:00:41;18.50;81.70
16627;DHT22;8427;52.204;7.202;2023-09-08T07:03:09;18.60;81.20
16627;DHT22;8427;52.204;7.202;2023-09-08T07:05:39;18.70;80.90
16627;DHT22;8427;52.204;7.202;2023-09-08T07:08:07;18.80;80.90
16627;DHT22;8427;52.204;7.202;2023-09-08T07:10:36;18.90;80.60
16627;DHT22;8427;52.204;7.202;2023-09-08T07:13:04;19.10;80.80
16627;DHT22;8427;52.204;7.202;2023-09-08T07:15:33;19.20;79.40
16627;DHT22;8427;52.204;7.202;2023-09-08T07:18:04;19.40;79.60
16627;DHT22;8427;52.204;7.202;2023-09-08T07:20:32;19.40;78.70
16627;DHT22;8427;52.204;7.202;2023-09-08T07:23:07;19.60;78.10
16627;DHT22;8427;52.204;7.202;2023-09-08T07:25:38;19.70;77.60
16627;DHT22;8427;52.204;7.202;2023-09-08T07:28:06;19.90;77.50
16627;DHT22;8427;52.204;7.202;2023-09-08T07:30:35;20.00;77.30
16627;DHT22;8427;52.204;7.202;2023-09-08T07:36:06;20.20;76.20
16627;DHT22;8427;52.204;7.202;2023-09-08T07:38:34;20.30;75.70
16627;DHT22;8427;52.204;7.202;2023-09-08T07:41:02;20.40;75.80
16627;DHT22;8427;52.204;7.202;2023-09-08T07:43:30;20.60;75.40
16627;DHT22;8427;52.204;7.202;2023-09-08T07:46:02;20.70;74.80
16627;DHT22;8427;52.204;7.202;2023-09-08T07:48:38;20.90;75.70
16627;DHT22;8427;52.204;7.202;2023-09-08T07:51:07;21.00;74.70
16627;DHT22;8427;52.204;7.202;2023-09-08T07:53:35;21.00;73.90
16627;DHT22;8427;52.204;7.202;2023-09-08T07:56:05;21.10;73.90
16627;DHT22;8427;52.204;7.202;2023-09-08T07:58:44;21.20;73.30
16627;DHT22;8427;52.204;7.202;2023-09-08T08:01:20;21.40;73.20
16627;DHT22;8427;52.204;7.202;2023-09-08T08:03:48;21.50;72.30
16627;DHT22;8427;52.204;7.202;2023-09-08T08:06:16;21.70;71.30
16627;DHT22;8427;52.204;7.202;2023-09-08T08:08:44;21.70;71.30
16627;DHT22;8427;52.204;7.202;2023-09-08T08:11:12;21.90;70.80
16627;DHT22;8427;52.204;7.202;2023-09-08T08:13:40;21.90;71.90
16627;DHT22;8427;52.204;7.202;2023-09-08T08:16:08;22.00;70.30
16627;DHT22;8427;52.204;7.202;2023-09-08T08:18:37;22.10;68.70
16627;DHT22;8427;52.204;7.202;2023-09-08T08:21:05;22.30;69.00
16627;DHT22;8427;52.204;7.202;2023-09-08T08:23:33;22.40;68.70
16627;DHT22;8427;52.204;7.202;2023-09-08T08:26:05;22.50;68.50
16627;DHT22;8427;52.204;7.202;2023-09-08T08:28:36;22.60;66.30
16627;DHT22;8427;52.204;7.202;2023-09-08T08:31:03;22.80;67.80
16627;DHT22;8427;52.204;7.202;2023-09-08T08:33:32;23.00;67.40
16627;DHT22;8427;52.204;7.202;2023-09-08T08:36:01;23.10;65.90
16627;DHT22;8427;52.204;7.202;2023-09-08T08:38:30;23.20;66.30
16627;DHT22;8427;52.204;7.202;2023-09-08T08:41:02;23.30;65.90
16627;DHT22;8427;52.204;7.202;2023-09-08T08:43:30;23.40;66.80
16627;DHT22;8427;52.204;7.202;2023-09-08T08:45:58;23.40;66.70
16627;DHT22;8427;52.204;7.202;2023-09-08T08:48:27;23.60;65.70
16627;DHT22;8427;52.204;7.202;2023-09-08T08:50:57;23.70;67.00
16627;DHT22;8427;52.204;7.202;2023-09-08T08:53:26;23.90;66.50
16627;DHT22;8427;52.204;7.202;2023-09-08T08:58:36;24.10;62.80
16627;DHT22;8427;52.204;7.202;2023-09-08T09:01:05;24.20;62.90
16627;DHT22;8427;52.204;7.202;2023-09-08T09:03:33;24.30;62.00
16627;DHT22;8427;52.204;7.202;2023-09-08T09:06:04;24.30;63.00
16627;DHT22;8427;52.204;7.202;2023-09-08T09:08:33;24.50;62.20
16627;DHT22;8427;52.204;7.202;2023-09-08T09:11:02;24.60;62.80
16627;DHT22;8427;52.204;7.202;2023-09-08T09:13:30;24.70;61.10
16627;DHT22;8427;52.204;7.202;2023-09-08T09:15:58;24.80;61.00
16627;DHT22;8427;52.204;7.202;2023-09-08T09:18:26;24.80;60.30
16627;DHT22;8427;52.204;7.202;2023-09-08T09:20:58;24.90;60.70
16627;DHT22;8427;52.204;7.202;2023-09-08T09:23:26;25.20;60.10
16627;DHT22;8427;52.204;7.202;2023-09-08T09:25:56;25.20;60.90
16627;DHT22;8427;52.204;7.202;2023-09-08T09:28:24;25.30;58.80
16627;DHT22;8427;52.204;7.202;2023-09-08T09:30:52;25.40;59.30
16627;DHT22;8427;52.204;7.202;2023-09-08T09:33:21;25.50;59.60
16627;DHT22;8427;52.204;7.202;2023-09-08T09:35:49;25.60;60.60
16627;DHT22;8427;52.204;7.202;2023-09-08T09:38:18;25.70;58.30
16627;DHT22;8427;52.204;7.202;2023-09-08T09:40:47;25.80;59.50
16627;DHT22;8427;52.204;7.202;2023-09-08T09:43:17;25.90;59.50
16627;DHT22;8427;52.204;7.202;2023-09-08T09:45:47;25.90;58.80
16627;DHT22;8427;52.204;7.202;2023-09-08T09:48:16;25.90;58.40
16627;DHT22;8427;52.204;7.202;2023-09-08T09:50:46;26.00;57.50
16627;DHT22;8427;52.204;7.202;2023-09-08T09:53:14;26.10;58.10
16627;DHT22;8427;52.204;7.202;2023-09-08T09:55:43;26.20;57.70
16627;DHT22;8427;52.204;7.202;2023-09-08T09:58:11;26.20;57.00
16627;DHT22;8427;52.204;7.202;2023-09-08T10:00:42;26.30;56.90
16627;DHT22;8427;52.204;7.202;2023-09-08T10:03:15;26.40;57.80
16627;DHT22;8427;52.204;7.202;2023-09-08T10:05:43;26.60;57.60
16627;DHT22;8427;52.204;7.202;2023-09-08T10:08:13;26.70;57.00
16627;DHT22;8427;52.204;7.202;2023-09-08T10:10:41;26.80;57.90
16627;DHT22;8427;52.204;7.202;2023-09-08T10:13:12;26.90;57.60
16627;DHT22;8427;52.204;7.202;2023-09-08T10:15:42;26.90;55.90
16627;DHT22;8427;52.204;7.202;2023-09-08T10:18:10;26.90;56.90
16627;DHT22;8427;52.204;7.202;2023-09-08T10:20:41;27.00;54.40
16627;DHT22;8427;52.204;7.202;2023-09-08T10:23:11;27.10;55.50
16627;DHT22;8427;52.204;7.202;2023-09-08T10:25:41;27.10;53.70
16627;DHT22;8427;52.204;7.202;2023-09-08T10:28:10;27.20;56.00
16627;DHT22;8427;52.204;7.202;2023-09-08T10:30:37;27.40;55.30
16627;DHT22;8427;52.204;7.202;2023-09-08T10:33:07;27.40;54.00
16627;DHT22;8427;52.204;7.202;2023-09-08T10:35:35;27.40;53.50
16627;DHT22;8427;52.204;7.202;2023-09-08T10:38:21;27.50;54.10
16627;DHT22;8427;52.204;7.202;2023-09-08T10:40:49;27.60;54.20
16627;DHT22;8427;52.204;7.202;2023-09-08T10:43:17;27.70;56.20
16627;DHT22;8427;52.204;7.202;2023-09-08T10:45:45;27.80;51.70
16627;DHT22;8427;52.204;7.202;2023-09-08T10:48:14;28.00;52.00
16627;DHT22;8427;52.204;7.202;2023-09-08T10:50:42;28.00;52.50
16627;DHT22;8427;52.204;7.202;2023-09-08T10:53:12;28.00;50.60
16627;DHT22;8427;52.204;7.202;2023-09-08T10:55:40;28.10;50.40
16627;DHT22;8427;52.204;7.202;2023-09-08T10:58:10;28.10;51.60
16627;DHT22;8427;52.204;7.202;2023-09-08T11:00:44;28.20;50.90
16627;DHT22;8427;52.204;7.202;2023-09-08T11:03:12;28.30;50.00
16627;DHT22;8427;52.204;7.202;2023-09-08T11:05:42;28.40;49.70
16627;DHT22;8427;52.204;7.202;2023-09-08T11:08:11;28.40;47.90
16627;DHT22;8427;52.204;7.202;2023-09-08T11:10:40;28.60;49.70
16627;DHT22;8427;52.204;7.202;2023-09-08T11:13:08;28.60;47.70
16627;DHT22;8427;52.204;7.202;2023-09-08T11:15:37;28.70;46.30
16627;DHT22;8427;52.204;7.202;2023-09-08T11:18:05;28.60;47.20
16627;DHT22;8427;52.204;7.202;2023-09-08T11:20:34;28.80;47.80
16627;DHT22;8427;52.204;7.202;2023-09-08T11:23:03;28.80;47.30
16627;DHT22;8427;52.204;7.202;2023-09-08T11:25:31;28.90;45.60
16627;DHT22;8427;52.204;7.202;2023-09-08T11:28:00;28.90;46.00
16627;DHT22;8427;52.204;7.202;2023-09-08T11:30:28;29.00;46.30
16627;DHT22;8427;52.204;7.202;2023-09-08T11:32:55;29.10;47.40
16627;DHT22;8427;52.204;7.202;2023-09-08T11:35:28;29.20;47.70
16627;DHT22;8427;52.204;7.202;2023-09-08T11:37:59;29.10;47.10
16627;DHT22;8427;52.204;7.202;2023-09-08T11:40:30;29.10;46.40
16627;DHT22;8427;52.204;7.202;2023-09-08T11:42:58;29.20;46.30
16627;DHT22;8427;52.204;7.202;2023-09-08T11:45:26;29.30;47.40
16627;DHT22;8427;52.204;7.202;2023-09-08T11:47:54;29.40;46.50
16627;DHT22;8427;52.204;7.202;2023-09-08T11:50:23;29.50;47.70
16627;DHT22;8427;52.204;7.202;2023-09-08T11:52:51;29.50;45.60
16627;DHT22;8427;52.204;7.202;2023-09-08T11:55:20;29.50;46.40
16627;DHT22;8427;52.204;7.202;2023-09-08T11:57:50;29.80;46.50
16627;DHT22;8427;52.204;7.202;2023-09-08T12:00:21;29.70;45.40
16627;DHT22;8427;52.204;7.202;2023-09-08T12:02:49;29.80;45.90
16627;DHT22;8427;52.204;7.202;2023-09-08T12:05:21;29.90;45.60
16627;DHT22;8427;52.204;7.202;2023-09-08T12:07:49;30.00;46.20
16627;DHT22;8427;52.204;7.202;2023-09-08T12:10:17;30.00;44.90
16627;DHT22;8427;52.204;7.202;2023-09-08T12:12:45;30.20;45.80
16627;DHT22;8427;52.204;7.202;2023-09-08T12:17:57;30.20;44.90
16627;DHT22;8427;52.204;7.202;2023-09-08T12:20:25;30.20;45.50
16627;DHT22;8427;52.204;7.202;2023-09-08T12:22:53;30.30;44.40
16627;DHT22;8427;52.204;7.202;2023-09-08T12:25:21;30.30;43.30
16627;DHT22;8427;52.204;7.202;2023-09-08T12:27:49;30.40;43.70
16627;DHT22;8427;52.204;7.202;2023-09-08T12:30:18;30.40;43.80
16627;DHT22;8427;52.204;7.202;2023-09-08T12:32:46;30.50;44.50
16627;DHT22;8427;52.204;7.202;2023-09-08T12:35:21;30.50;43.90
16627;DHT22;8427;52.204;7.202;2023-09-08T12:40:36;30.50;43.30
16627;DHT22;8427;52.204;7.202;2023-09-08T12:43:04;30.50;43.80
16627;DHT22;8427;52.204;7.202;2023-09-08T12:45:53;30.60;44.60
16627;DHT22;8427;52.204;7.202;2023-09-08T12:48:23;30.60;44.20
16627;DHT22;8427;52.204;7.202;2023-09-08T12:50:52;30.60;44.40
16627;DHT22;8427;52.204;7.202;2023-09-08T12:53:20;30.70;43.80
16627;DHT22;8427;52.204;7.202;2023-09-08T12:55:49;30.70;44.90
16627;DHT22;8427;52.204;7.202;2023-09-08T12:58:17;30.80;43.70
16627;DHT22;8427;52.204;7.202;2023-09-08T13:00:45;30.80;42.30
16627;DHT22;8427;52.204;7.202;2023-09-08T13:03:13;30.80;43.30
16627;DHT22;8427;52.204;7.202;2023-09-08T13:05:40;31.00;43.30
16627;DHT22;8427;52.204;7.202;2023-09-08T13:08:10;30.90;42.70
16627;DHT22;8427;52.204;7.202;2023-09-08T13:10:38;31.00;42.90
16627;DHT22;8427;52.204;7.202;2023-09-08T13:13:05;31.10;42.20
16627;DHT22;8427;52.204;7.202;2023-09-08T13:15:33;31.00;42.50
16627;DHT22;8427;52.204;7.202;2023-09-08T13:18:01;31.00;43.20
16627;DHT22;8427;52.204;7.202;2023-09-08T13:20:29;31.30;41.20
16627;DHT22;8427;52.204;7.202;2023-09-08T13:22:57;31.30;41.60
16627;DHT22;8427;52.204;7.202;2023-09-08T13:25:26;31.20;40.60
16627;DHT22;8427;52.204;7.202;2023-09-08T13:27:54;31.30;40.80
16627;DHT22;8427;52.204;7.202;2023-09-08T13:30:21;31.30;40.70
16627;DHT22;8427;52.204;7.202;2023-09-08T13:32:53;31.30;40.60
16627;DHT22;8427;52.204;7.202;2023-09-08T13:35:22;31.40;40.40
16627;DHT22;8427;52.204;7.202;2023-09-08T13:37:50;31.40;40.60
16627;DHT22;8427;52.204;7.202;2023-09-08T13:40:17;31.50;41.10
16627;DHT22;8427;52.204;7.202;2023-09-08T13:42:47;31.40;41.00
16627;DHT22;8427;52.204;7.202;2023-09-08T13:45:15;31.30;41.70
16627;DHT22;8427;52.204;7.202;2023-09-08T13:47:42;31.20;41.30
16627;DHT22;8427;52.204;7.202;2023-09-08T13:50:11;31.20;40.40
16627;DHT22;8427;52.204;7.202;2023-09-08T13:52:40;31.30;41.20
16627;DHT22;8427;52.204;7.202;2023-09-08T13:55:09;31.20;40.70
16627;DHT22;8427;52.204;7.202;2023-09-08T13:57:59;31.20;41.70
16627;DHT22;8427;52.204;7.202;2023-09-08T14:00:28;31.30;41.10
16627;DHT22;8427;52.204;7.202;2023-09-08T14:02:57;31.30;43.00
16627;DHT22;8427;52.204;7.202;2023-09-08T14:05:31;31.20;43.50
16627;DHT22;8427;52.204;7.202;2023-09-08T14:08:03;31.10;43.60
16627;DHT22;8427;52.204;7.202;2023-09-08T14:10:42;31.10;44.10
16627;DHT22;8427;52.204;7.202;2023-09-08T14:13:14;31.10;42.90
16627;DHT22;8427;52.204;7.202;2023-09-08T14:15:42;30.90;42.80
16627;DHT22;8427;52.204;7.202;2023-09-08T14:18:10;31.00;43.70
16627;DHT22;8427;52.204;7.202;2023-09-08T14:20:38;31.00;44.20
16627;DHT22;8427;52.204;7.202;2023-09-08T14:23:05;31.00;43.30
16627;DHT22;8427;52.204;7.202;2023-09-08T14:25:34;31.10;42.80
16627;DHT22;8427;52.204;7.202;2023-09-08T14:28:02;31.10;43.80
16627;DHT22;8427;52.204;7.202;2023-09-08T14:30:34;31.10;43.00
16627;DHT22;8427;52.204;7.202;2023-09-08T14:33:02;31.00;43.10
16627;DHT22;8427;52.204;7.202;2023-09-08T14:35:30;31.00;43.00
16627;DHT22;8427;52.204;7.202;2023-09-08T14:37:58;30.90;46.20
16627;DHT22;8427;52.204;7.202;2023-09-08T14:40:26;30.90;42.60
16627;DHT22;8427;52.204;7.202;2023-09-08T14:42:53;30.80;44.20
16627;DHT22;8427;52.204;7.202;2023-09-08T14:45:21;30.70;43.30
16627;DHT22;8427;52.204;7.202;2023-09-08T14:47:50;30.90;44.70
16627;DHT22;8427;52.204;7.202;2023-09-08T14:50:18;30.80;43.70
16627;DHT22;8427;52.204;7.202;2023-09-08T14:52:45;30.80;44.60
16627;DHT22;8427;52.204;7.202;2023-09-08T14:55:13;30.70;43.90
16627;DHT22;8427;52.204;7.202;2023-09-08T14:57:41;30.60;46.00
16627;DHT22;8427;52.204;7.202;2023-09-08T15:00:09;30.50;44.40
16627;DHT22;8427;52.204;7.202;2023-09-08T15:02:37;30.40;43.60
16627;DHT22;8427;52.204;7.202;2023-09-08T15:05:06;30.40;44.70
16627;DHT22;8427;52.204;7.202;2023-09-08T15:07:35;30.30;47.40
16627;DHT22;8427;52.204;7.202;2023-09-08T15:10:02;30.20;45.80
16627;DHT22;8427;52.204;7.202;2023-09-08T15:12:30;30.20;45.30
16627;DHT22;8427;52.204;7.202;2023-09-08T15:14:58;30.20;43.40
16627;DHT22;8427;52.204;7.202;2023-09-08T15:17:26;30.30;44.20
16627;DHT22;8427;52.204;7.202;2023-09-08T15:19:54;30.10;45.30
16627;DHT22;8427;52.204;7.202;2023-09-08T15:22:23;30.00;46.40
16627;DHT22;8427;52.204;7.202;2023-09-08T15:24:50;30.00;46.70
16627;DHT22;8427;52.204;7.202;2023-09-08T15:27:18;29.90;47.70
16627;DHT22;8427;52.204;7.202;2023-09-08T15:29:46;29.90;45.10
16627;DHT22;8427;52.204;7.202;2023-09-08T15:32:13;29.70;47.20
16627;DHT22;8427;52.204;7.202;2023-09-08T15:34:41;29.60;48.20
16627;DHT22;8427;52.204;7.202;2023-09-08T15:37:10;29.40;49.80
16627;DHT22;8427;52.204;7.202;2023-09-08T15:39:39;29.30;51.10
16627;DHT22;8427;52.204;7.202;2023-09-08T15:42:07;29.20;50.90
16627;DHT22;8427;52.204;7.202;2023-09-08T15:44:35;29.10;49.20
16627;DHT22;8427;52.204;7.202;2023-09-08T15:47:02;29.00;49.50
16627;DHT22;8427;52.204;7.202;2023-09-08T15:49:30;29.10;46.40
16627;DHT22;8427;52.204;7.202;2023-09-08T15:51:58;29.00;49.70
16627;DHT22;8427;52.204;7.202;2023-09-08T15:54:43;29.00;51.40
16627;DHT22;8427;52.204;7.202;2023-09-08T15:57:11;29.00;50.50
16627;DHT22;8427;52.204;7.202;2023-09-08T15:59:38;28.80;51.50
16627;DHT22;8427;52.204;7.202;2023-09-08T16:02:06;28.70;49.90
16627;DHT22;8427;52.204;7.202;2023-09-08T16:04:34;28.70;52.20
16627;DHT22;8427;52.204;7.202;2023-09-08T16:07:02;28.70;52.10
16627;DHT22;8427;52.204;7.202;2023-09-08T16:09:31;28.60;52.80